Time;durP1;ratioP1;P1;durP2;ratioP2;P2;SDS_P1;SDS_P2;PMS_P1;PMS_P2;Temp;Humidity;BMP_temperature;BMP_pressure;BME280_temperature;BME280_humidity;BME280_pressure;Samples;Min_cycle;Max_cycle;Signal;HPM_P1;HPM_P2
2024/02/05 00:00:04;;;;;;;2.38;0.50;;;18.20;57.90;;;;;;6228634;23;20147;-85
2024/02/05 00:02:30;;;;;;;3.13;0.50;;;18.20;57.80;;;;;;6229783;22;20238;-85
2024/02/05 00:04:57;;;;;;;1.55;0.57;;;18.20;57.80;;;;;;6254227;22;20190;-85
2024/02/05 00:09:48;;;;;;;0.90;0.50;;;18.20;57.80;;;;;;6151402;23;20227;-86
2024/02/05 00:12:14;;;;;;;1.60;0.90;;;18.20;57.80;;;;;;6252881;22;20242;-86
2024/02/05 00:14:40;;;;;;;1.75;0.43;;;18.20;57.80;;;;;;6254787;22;20201;-86
2024/02/05 00:17:07;;;;;;;1.20;0.50;;;18.20;57.80;;;;;;6254954;22;20139;-85
2024/02/05 00:19:33;;;;;;;1.13;0.47;;;18.20;58.00;;;;;;6229326;22;20148;-86
2024/02/05 00:21:59;;;;;;;2.40;0.50;;;18.10;57.90;;;;;;6254209;22;20162;-86
2024/02/05 00:24:25;;;;;;;2.15;0.40;;;18.20;57.80;;;;;;6226537;23;20191;-85
2024/02/05 00:26:50;;;;;;;3.75;0.50;;;18.20;57.80;;;;;;6254739;22;20699;-85
2024/02/05 00:29:17;;;;;;;0.60;0.30;;;18.20;57.90;;;;;;6228964;23;20147;-86
2024/02/05 00:31:43;;;;;;;1.75;0.40;;;18.10;57.90;;;;;;6252733;22;20224;-86
2024/02/05 00:34:09;;;;;;;1.00;0.60;;;18.20;57.90;;;;;;6227875;22;20144;-86
2024/02/05 00:36:35;;;;;;;1.10;0.30;;;18.20;57.80;;;;;;6254211;22;20198;-86
2024/02/05 00:39:00;;;;;;;1.45;0.50;;;18.20;57.90;;;;;;6225804;23;20196;-86
2024/02/05 00:41:26;;;;;;;2.13;0.50;;;18.20;57.90;;;;;;6228084;23;20187;-86
2024/02/05 00:43:52;;;;;;;2.60;0.80;;;18.20;57.80;;;;;;6254091;22;20139;-85
2024/02/05 00:46:26;;;;;;;3.30;0.63;;;18.20;57.90;;;;;;6278985;22;20204;-86
2024/02/05 00:48:54;;;;;;;0.73;0.20;;;18.20;57.90;;;;;;6227400;22;20143;-86
2024/02/05 00:51:20;;;;;;;2.35;0.32;;;18.10;57.80;;;;;;6228358;23;20689;-86
2024/02/05 00:53:50;;;;;;;0.90;0.38;;;18.10;57.80;;;;;;6227480;23;20160;-86
2024/02/05 00:56:19;;;;;;;1.13;0.40;;;18.20;57.90;;;;;;6203191;22;20163;-86
2024/02/05 00:58:45;;;;;;;1.85;0.45;;;18.10;57.90;;;;;;6202650;23;20529;-86
2024/02/05 01:01:11;;;;;;;2.75;0.40;;;18.10;57.90;;;;;;6253946;22;20204;-87
2024/02/05 01:06:08;;;;;;;1.45;0.40;;;18.20;57.90;;;;;;6248972;22;20221;-86
2024/02/05 01:08:34;;;;;;;1.65;0.50;;;18.10;57.90;;;;;;6203864;22;20152;-86
2024/02/05 01:11:00;;;;;;;1.52;0.40;;;18.10;57.90;;;;;;6201629;22;20210;-86
2024/02/05 01:13:26;;;;;;;1.33;0.60;;;18.10;57.80;;;;;;6202874;23;20151;-86
2024/02/05 01:15:52;;;;;;;1.50;0.30;;;18.10;57.80;;;;;;6227537;22;20136;-86
2024/02/05 01:18:18;;;;;;;1.58;0.40;;;18.20;57.80;;;;;;6199856;22;20190;-85
2024/02/05 01:20:44;;;;;;;1.42;0.60;;;18.10;57.70;;;;;;6253827;22;20651;-86
2024/02/05 01:23:10;;;;;;;4.57;0.45;;;18.10;57.80;;;;;;6254269;22;20202;-86
2024/02/05 01:25:36;;;;;;;3.80;0.47;;;18.10;57.80;;;;;;6228258;23;20193;-87
2024/02/05 01:28:06;;;;;;;1.75;0.47;;;18.20;57.90;;;;;;6228839;23;20143;-85
2024/02/05 01:30:49;;;;;;;1.13;0.43;;;18.20;57.80;;;;;;6252139;22;20132;-85
2024/02/05 01:33:14;;;;;;;2.17;0.60;;;18.10;57.80;;;;;;6254939;22;20144;-86
2024/02/05 01:35:40;;;;;;;0.52;0.40;;;18.10;57.80;;;;;;6228408;23;20644;-85
2024/02/05 01:38:06;;;;;;;1.13;0.30;;;18.10;57.80;;;;;;6253878;22;20540;-85
2024/02/05 01:40:34;;;;;;;1.10;0.40;;;18.10;57.80;;;;;;6253918;22;20147;-86
2024/02/05 01:43:00;;;;;;;1.17;0.40;;;18.10;57.80;;;;;;6228746;22;20650;-85
2024/02/05 01:45:26;;;;;;;1.20;0.40;;;18.10;57.70;;;;;;6227186;22;20166;-85
2024/02/05 01:47:52;;;;;;;2.33;0.30;;;18.10;57.80;;;;;;6227850;23;20222;-86
2024/02/05 01:50:18;;;;;;;2.45;0.50;;;18.10;57.60;;;;;;6227711;23;20653;-85
2024/02/05 01:52:48;;;;;;;0.60;0.45;;;18.10;57.70;;;;;;6251206;22;20179;-85
2024/02/05 01:55:14;;;;;;;2.22;0.30;;;18.20;57.70;;;;;;6228015;23;20195;-85
2024/02/05 01:57:40;;;;;;;1.00;0.32;;;18.10;57.80;;;;;;6252341;22;20124;-85
2024/02/05 02:02:32;;;;;;;1.48;0.40;;;18.10;57.70;;;;;;6271733;22;20204;-86
2024/02/05 02:04:58;;;;;;;1.13;0.40;;;18.10;57.70;;;;;;6271183;22;20133;-86
2024/02/05 02:07:24;;;;;;;1.80;0.45;;;18.10;57.60;;;;;;6248640;22;20154;-85
2024/02/05 02:09:50;;;;;;;0.98;0.25;;;18.10;57.70;;;;;;6248486;22;20175;-86
2024/02/05 02:12:16;;;;;;;1.45;0.40;;;18.10;57.70;;;;;;6274608;22;20538;-85
2024/02/05 02:17:07;;;;;;;1.20;0.40;;;18.10;57.60;;;;;;6151038;22;20222;-86
2024/02/05 02:19:46;;;;;;;1.25;0.35;;;18.10;57.70;;;;;;6253077;22;20136;-85
2024/02/05 02:22:25;;;;;;;0.93;0.35;;;18.10;57.70;;;;;;6251367;22;20144;-86
2024/02/05 02:24:50;;;;;;;1.75;0.45;;;18.10;57.70;;;;;;6226943;23;20223;-85
2024/02/05 02:27:16;;;;;;;1.35;0.43;;;18.10;57.70;;;;;;6226778;23;20179;-86
2024/02/05 02:29:43;;;;;;;1.55;0.30;;;18.10;57.70;;;;;;6227393;23;20888;-86
2024/02/05 02:32:40;;;;;;;2.13;0.40;;;18.10;57.70;;;;;;6228539;22;20183;-86
2024/02/05 02:35:11;;;;;;;2.80;0.47;;;18.00;57.80;;;;;;6232407;22;20140;-85
2024/02/05 02:37:40;;;;;;;3.42;0.50;;;18.10;57.70;;;;;;6252752;22;20189;-86
2024/02/05 02:40:09;;;;;;;0.40;0.40;;;18.10;57.70;;;;;;6227984;23;20147;-86
2024/02/05 02:42:40;;;;;;;1.08;0.35;;;18.00;57.70;;;;;;6229504;22;20166;-86
2024/02/05 02:45:10;;;;;;;1.02;0.45;;;18.10;57.70;;;;;;6228829;22;20136;-88
2024/02/05 02:47:36;;;;;;;3.35;0.52;;;18.20;57.50;;;;;;6254395;22;20147;-86
2024/02/05 02:50:14;;;;;;;;;;;;;;;;;;;;;
2024/02/05 02:52:40;;;;;;;1.58;0.43;;;18.10;57.60;;;;;;6271331;22;20203;-86
2024/02/05 02:55:06;;;;;;;2.55;0.40;;;18.10;57.60;;;;;;6247263;22;20153;-86
2024/02/05 02:57:32;;;;;;;3.08;0.50;;;18.10;57.70;;;;;;6273039;22;20133;-85
2024/02/05 02:59:57;;;;;;;0.75;0.40;;;18.10;57.70;;;;;;6247856;22;20161;-86
2024/02/05 03:02:24;;;;;;;1.75;0.40;;;18.10;57.50;;;;;;6273591;22;20479;-85
2024/02/05 03:04:53;;;;;;;2.30;0.40;;;18.10;57.60;;;;;;6248403;22;20183;-85
2024/02/05 03:07:19;;;;;;;0.77;0.40;;;18.10;57.50;;;;;;6274439;22;20545;-85
2024/02/05 03:09:44;;;;;;;2.22;0.50;;;18.10;57.60;;;;;;6247328;22;20148;-86
2024/02/05 03:12:10;;;;;;;0.80;0.50;;;18.00;57.50;;;;;;6271036;22;20219;-87
2024/02/05 03:14:36;;;;;;;0.95;0.25;;;18.10;57.60;;;;;;6247186;22;20141;-86
2024/02/05 03:17:02;;;;;;;0.57;0.30;;;18.10;57.50;;;;;;6275833;22;20575;-85
2024/02/05 03:19:28;;;;;;;1.92;0.60;;;18.00;57.50;;;;;;6275642;22;20137;-85
2024/02/05 03:21:54;;;;;;;0.80;0.40;;;18.10;57.60;;;;;;6249791;22;20636;-85
2024/02/05 03:24:20;;;;;;;1.90;0.50;;;18.00;57.50;;;;;;6250350;22;20148;-86
2024/02/05 03:26:46;;;;;;;0.88;0.45;;;18.10;57.60;;;;;;6276024;22;20219;-86
2024/02/05 03:29:13;;;;;;;1.10;0.40;;;18.00;57.50;;;;;;6248357;22;20141;-86
2024/02/05 03:31:41;;;;;;;1.40;0.40;;;18.10;57.50;;;;;;6249759;22;20950;-86
2024/02/05 03:34:07;;;;;;;2.38;0.60;;;18.00;57.50;;;;;;6274505;22;20180;-86
2024/02/05 03:36:33;;;;;;;2.28;0.85;;;18.00;57.40;;;;;;6276796;22;20129;-86
2024/02/05 03:38:59;;;;;;;1.55;0.40;;;18.10;57.60;;;;;;6251572;22;20145;-86
2024/02/05 03:41:25;;;;;;;2.42;0.50;;;18.00;57.50;;;;;;6251797;22;20222;-86
2024/02/05 03:43:51;;;;;;;3.03;0.50;;;18.10;57.50;;;;;;6276834;22;20167;-86
2024/02/05 03:46:17;;;;;;;1.45;0.30;;;18.10;57.60;;;;;;6277138;22;20134;-86
2024/02/05 03:48:58;;;;;;;1.00;0.40;;;18.00;57.60;;;;;;6251963;22;20172;-86
2024/02/05 03:51:24;;;;;;;1.30;0.22;;;18.10;57.60;;;;;;6276294;22;20169;-86
2024/02/05 03:53:50;;;;;;;1.20;0.40;;;18.00;57.50;;;;;;6251151;22;20578;-86
2024/02/05 03:56:18;;;;;;;1.80;0.50;;;18.00;57.50;;;;;;6276121;22;20523;-86
2024/02/05 03:58:44;;;;;;;0.47;0.30;;;18.00;57.50;;;;;;6251379;22;20133;-86
2024/02/05 04:01:10;;;;;;;1.83;0.45;;;18.00;57.50;;;;;;6250086;22;20655;-86
2024/02/05 04:03:36;;;;;;;0.40;0.22;;;18.10;57.50;;;;;;6250319;22;20168;-86
2024/02/05 04:06:02;;;;;;;1.20;0.43;;;18.00;57.30;;;;;;6250469;22;20148;-85
2024/02/05 04:08:28;;;;;;;1.52;0.47;;;18.00;57.80;;;;;;6250651;22;20141;-86
2024/02/05 04:10:56;;;;;;;1.73;0.57;;;18.10;57.40;;;;;;6257188;22;20636;-85
2024/02/05 04:13:22;;;;;;;0.75;0.43;;;18.00;57.50;;;;;;6245215;23;20149;-86
2024/02/05 04:15:47;;;;;;;0.98;0.57;;;18.10;57.50;;;;;;6220187;23;20176;-86
2024/02/05 04:18:13;;;;;;;0.45;0.30;;;18.00;57.40;;;;;;6220188;23;20137;-86
2024/02/05 04:20:39;;;;;;;0.95;0.43;;;18.10;57.50;;;;;;6245219;23;20520;-86
2024/02/05 04:23:05;;;;;;;1.08;0.43;;;18.00;57.50;;;;;;6220331;23;20145;-85
2024/02/05 04:25:31;;;;;;;1.85;0.40;;;18.00;57.40;;;;;;6220343;23;20177;-85
2024/02/05 04:27:57;;;;;;;1.08;0.30;;;18.10;57.40;;;;;;6218586;23;20153;-86
2024/02/05 04:30:29;;;;;;;1.02;0.50;;;18.00;57.40;;;;;;6220115;23;20152;-85
2024/02/05 04:35:30;;;;;;;0.80;0.30;;;18.00;57.40;;;;;;6163266;22;20264;-86
2024/02/05 04:37:56;;;;;;;1.73;0.40;;;18.00;57.50;;;;;;6254557;22;20501;-85
2024/02/05 04:40:21;;;;;;;1.48;0.47;;;18.00;57.40;;;;;;6255013;22;20136;-86
2024/02/05 04:42:47;;;;;;;1.20;0.40;;;18.00;57.50;;;;;;6255338;22;20463;-85
2024/02/05 04:45:13;;;;;;;1.67;0.40;;;17.90;57.50;;;;;;6229127;23;20212;-86
2024/02/05 04:47:39;;;;;;;1.55;0.30;;;18.00;57.50;;;;;;6255187;22;20132;-84
2024/02/05 04:50:05;;;;;;;0.88;0.35;;;18.00;57.40;;;;;;6255894;22;20474;-85
2024/02/05 04:52:33;;;;;;;0.82;0.47;;;18.00;57.40;;;;;;6229596;22;20171;-85
2024/02/05 04:54:58;;;;;;;1.77;0.45;;;18.00;57.40;;;;;;6227703;23;20159;-85
2024/02/05 04:57:24;;;;;;;1.63;0.50;;;18.00;57.50;;;;;;6253988;22;20132;-86
2024/02/05 04:59:57;;;;;;;1.10;0.50;;;18.00;57.40;;;;;;6254747;22;20154;-85
2024/02/05 05:02:22;;;;;;;2.33;0.40;;;18.00;57.50;;;;;;6177676;23;20155;-85
2024/02/05 05:04:50;;;;;;;0.52;0.32;;;18.00;57.40;;;;;;6254336;22;20143;-85
2024/02/05 05:07:16;;;;;;;0.60;0.40;;;18.10;57.40;;;;;;6178797;22;20155;-86
2024/02/05 05:09:41;;;;;;;1.33;0.40;;;18.00;57.40;;;;;;6254421;22;20147;-85
2024/02/05 05:12:09;;;;;;;0.93;0.40;;;18.00;57.40;;;;;;6253964;22;20175;-85
2024/02/05 05:14:37;;;;;;;1.05;0.43;;;18.00;57.30;;;;;;6229167;23;20155;-86
2024/02/05 05:17:03;;;;;;;0.88;0.40;;;18.00;57.30;;;;;;6228637;22;20549;-86
2024/02/05 05:19:28;;;;;;;1.75;0.40;;;18.00;57.40;;;;;;6252904;22;20159;-86
2024/02/05 05:21:55;;;;;;;0.93;0.40;;;18.00;57.30;;;;;;6254515;22;20241;-86
2024/02/05 05:24:20;;;;;;;0.98;0.40;;;18.00;57.30;;;;;;6226957;23;20140;-86
2024/02/05 05:29:21;;;;;;;1.38;0.40;;;18.00;57.30;;;;;;6146311;23;20182;-85
2024/02/05 05:31:47;;;;;;;1.52;0.30;;;17.90;57.30;;;;;;6228368;23;20191;-85
2024/02/05 05:34:13;;;;;;;1.25;0.32;;;18.00;57.30;;;;;;6253143;22;20139;-86
2024/02/05 05:36:39;;;;;;;1.95;0.50;;;18.00;57.30;;;;;;6253005;22;20486;-86
2024/02/05 05:39:05;;;;;;;1.65;0.40;;;18.00;57.30;;;;;;6251498;22;20138;-85
2024/02/05 05:41:31;;;;;;;2.53;0.55;;;18.00;57.40;;;;;;6252260;22;20571;-85
2024/02/05 05:43:57;;;;;;;1.73;0.43;;;18.00;57.30;;;;;;6226979;23;20193;-86
2024/02/05 05:46:22;;;;;;;1.55;0.40;;;18.00;57.90;;;;;;6253013;22;20542;-85
2024/02/05 05:48:48;;;;;;;0.47;0.30;;;18.00;57.20;;;;;;6227842;23;20148;-86
2024/02/05 05:51:14;;;;;;;1.75;0.40;;;18.00;57.20;;;;;;6227782;23;20187;-86
2024/02/05 05:53:40;;;;;;;0.73;0.35;;;18.00;57.30;;;;;;6255128;22;20225;-86
2024/02/05 05:56:08;;;;;;;0.40;0.40;;;18.00;57.30;;;;;;6255582;22;20559;-86
2024/02/05 05:58:34;;;;;;;0.98;0.40;;;18.00;57.30;;;;;;6230568;22;20497;-86
2024/02/05 06:01:05;;;;;;;1.13;0.43;;;18.00;57.20;;;;;;6228950;23;20579;-86
2024/02/05 06:03:32;;;;;;;1.88;0.50;;;17.90;57.20;;;;;;6251117;22;20138;-87
2024/02/05 06:05:59;;;;;;;1.70;0.30;;;17.90;57.20;;;;;;6229227;23;20166;-86
2024/02/05 06:08:25;;;;;;;0.35;0.22;;;18.00;57.30;;;;;;6254663;22;20147;-86
2024/02/05 06:10:51;;;;;;;1.67;0.60;;;18.00;57.20;;;;;;6253117;22;20201;-86
2024/02/05 06:13:19;;;;;;;2.53;0.68;;;18.00;57.20;;;;;;6228944;22;20144;-86
2024/02/05 06:15:45;;;;;;;1.05;0.40;;;18.00;57.20;;;;;;6199873;22;20159;-86
2024/02/05 06:18:10;;;;;;;1.33;0.40;;;18.00;56.70;;;;;;6227718;23;20148;-87
2024/02/05 06:20:37;;;;;;;1.38;0.30;;;18.10;56.30;;;;;;6228685;23;20159;-86
2024/02/05 06:23:05;;;;;;;1.67;0.40;;;18.20;56.40;;;;;;6253721;22;20170;-86
2024/02/05 06:25:31;;;;;;;0.40;0.30;;;18.20;56.40;;;;;;6229176;22;20226;-87
2024/02/05 06:27:57;;;;;;;0.70;0.40;;;18.30;56.40;;;;;;6253310;22;20174;-87
2024/02/05 06:30:27;;;;;;;1.70;0.40;;;18.20;56.50;;;;;;6226569;23;20214;-86
2024/02/05 06:32:53;;;;;;;1.30;0.38;;;18.20;56.50;;;;;;6227778;22;20720;-87
2024/02/05 06:35:18;;;;;;;2.08;0.43;;;18.20;56.40;;;;;;6227809;22;20155;-84
2024/02/05 06:37:44;;;;;;;1.33;0.40;;;18.30;56.40;;;;;;6252315;22;20459;-86
2024/02/05 06:40:13;;;;;;;0.85;0.50;;;18.20;56.50;;;;;;6278933;22;20158;-86
2024/02/05 06:42:40;;;;;;;1.27;0.40;;;18.20;56.50;;;;;;6251270;22;20164;-86
2024/02/05 06:45:07;;;;;;;1.42;0.40;;;18.20;56.60;;;;;;6228082;22;20150;-86
2024/02/05 06:47:33;;;;;;;1.63;0.63;;;18.20;56.50;;;;;;6253222;22;20156;-86
2024/02/05 06:49:59;;;;;;;1.60;0.40;;;18.20;56.60;;;;;;6252550;22;20135;-87
2024/02/05 06:52:26;;;;;;;1.85;0.50;;;18.20;56.70;;;;;;6229647;23;20622;-88
2024/02/05 06:54:52;;;;;;;0.93;0.30;;;18.10;56.70;;;;;;6230867;23;20148;-87
2024/02/05 06:57:18;;;;;;;0.43;0.30;;;18.10;56.70;;;;;;6231058;22;20143;-87
2024/02/05 06:59:45;;;;;;;2.13;0.38;;;18.10;56.60;;;;;;6231635;23;20151;-86
2024/02/05 07:02:11;;;;;;;1.90;0.50;;;18.20;56.30;;;;;;6253916;22;20575;-87
2024/02/05 07:04:40;;;;;;;1.27;0.50;;;18.20;56.00;;;;;;6255944;22;20128;-87
2024/02/05 07:07:12;;;;;;;0.30;0.30;;;18.30;55.90;;;;;;6233381;22;20144;-87
2024/02/05 07:09:38;;;;;;;1.15;0.38;;;18.30;56.00;;;;;;6233113;22;20190;-88
2024/02/05 07:12:07;;;;;;;0.70;0.40;;;18.30;55.70;;;;;;6259114;22;20559;-87
2024/02/05 07:14:34;;;;;;;0.85;0.30;;;18.30;55.50;;;;;;6260589;22;20540;-87
2024/02/05 07:17:29;;;;;;;0.70;0.32;;;18.40;55.20;;;;;;6287145;22;20147;-87
2024/02/05 07:19:59;;;;;;;1.08;0.40;;;18.40;55.50;;;;;;6224957;22;20151;-86
2024/02/05 07:22:40;;;;;;;0.93;0.30;;;18.40;55.00;;;;;;6265543;22;20178;-84
2024/02/05 07:25:26;;;;;;;;;;;;;;;;;;;;;
2024/02/05 07:27:52;;;;;;;0.77;0.38;;;18.30;55.70;;;;;;6230153;22;20603;-85
2024/02/05 07:30:29;;;;;;;1.30;0.30;;;18.40;55.10;;;;;;6251726;22;20192;-86
2024/02/05 07:33:13;;;;;;;;;;;;;;;;;;;;;
2024/02/05 11:31:40;;;;;;;0.80;0.50;;;18.90;55.90;;;;;;6165490;22;20283;-85
2024/02/05 11:58:37;;;;;;;2.13;0.40;;;18.80;56.10;;;;;;6157738;22;20147;-89
2024/02/05 12:00:44;;;;;;;0.98;0.30;;;18.80;55.70;;;;;;6268628;22;20334;-85
2024/02/05 12:03:12;;;;;;;1.50;0.57;;;18.80;55.70;;;;;;6260245;22;20153;-86
2024/02/05 12:05:42;;;;;;;2.38;0.40;;;18.80;55.80;;;;;;6255902;22;20502;-88
2024/02/05 12:08:12;;;;;;;1.73;0.52;;;18.80;55.70;;;;;;6253216;22;20149;-89
2024/02/05 12:10:55;;;;;;;0.68;0.32;;;18.80;55.60;;;;;;6218547;23;20152;-88
2024/02/05 12:13:34;;;;;;;2.00;0.32;;;18.70;55.70;;;;;;6220210;23;20219;-88
2024/02/05 12:16:10;;;;;;;2.28;0.30;;;18.80;55.70;;;;;;6181900;23;20154;-88
2024/02/05 12:18:44;;;;;;;0.90;0.28;;;18.90;55.20;;;;;;6158824;23;20139;-89
2024/02/05 12:21:13;;;;;;;0.57;0.40;;;19.00;54.10;;;;;;6152775;23;20535;-86
2024/02/05 12:23:53;;;;;;;;;;;;;;;;;;;;;
2024/02/05 12:26:31;;;;;;;0.40;0.38;;;19.10;54.30;;;;;;6104400;23;20184;-87
2024/02/05 12:29:24;;;;;;;1.70;0.50;;;19.20;54.60;;;;;;6081212;23;20211;-87
2024/02/05 12:32:06;;;;;;;0.40;0.20;;;19.10;54.90;;;;;;6054192;23;20205;-88
2024/02/05 12:34:36;;;;;;;0.85;0.30;;;19.10;54.50;;;;;;6076170;23;20148;-86
2024/02/05 12:37:04;;;;;;;0.22;0.20;;;19.20;54.40;;;;;;6076097;23;20168;-87
2024/02/05 12:39:37;;;;;;;0.90;0.40;;;19.10;54.60;;;;;;6073705;23;20723;-89
2024/02/05 12:42:03;;;;;;;1.92;0.35;;;19.10;54.70;;;;;;6099836;23;20622;-88
2024/02/05 12:44:30;;;;;;;0.57;0.32;;;19.10;54.10;;;;;;6050860;23;20154;-86
2024/02/05 12:47:00;;;;;;;1.27;0.43;;;19.20;54.10;;;;;;6068836;23;20155;-89
2024/02/05 12:49:37;;;;;;;0.93;0.30;;;19.20;53.90;;;;;;6044392;23;20177;-89
2024/02/05 12:52:03;;;;;;;1.42;0.47;;;19.20;54.40;;;;;;5988500;23;20253;-89
2024/02/05 12:54:42;;;;;;;1.65;0.30;;;19.20;54.00;;;;;;6014264;23;20947;-87
2024/02/05 12:57:08;;;;;;;1.08;0.30;;;19.10;54.50;;;;;;6025201;23;20186;-86
2024/02/05 12:59:35;;;;;;;1.00;0.45;;;19.20;53.90;;;;;;6015449;23;20606;-87
2024/02/05 13:02:06;;;;;;;0.60;0.30;;;19.20;54.00;;;;;;6015990;23;20234;-87
2024/02/05 13:04:32;;;;;;;0.50;0.30;;;19.20;53.90;;;;;;5975439;24;20234;-86
2024/02/05 13:07:07;;;;;;;0.30;0.25;;;19.30;54.10;;;;;;5996217;23;20151;-85
2024/02/05 13:09:34;;;;;;;0.82;0.22;;;19.20;53.90;;;;;;6057259;23;20150;-85
2024/02/05 13:12:02;;;;;;;1.27;0.20;;;19.30;53.90;;;;;;6056390;23;20641;-86
2024/02/05 13:14:31;;;;;;;2.05;0.20;;;19.20;54.10;;;;;;6035885;23;20211;-85
2024/02/05 13:17:06;;;;;;;1.65;0.40;;;19.20;53.90;;;;;;6036035;23;20161;-86
2024/02/05 13:19:37;;;;;;;0.95;0.32;;;19.20;53.70;;;;;;6032956;23;20598;-87
2024/02/05 13:22:05;;;;;;;1.85;0.20;;;19.20;54.50;;;;;;6020696;23;20241;-84
2024/02/05 13:24:31;;;;;;;3.03;0.30;;;19.10;54.20;;;;;;6009078;23;20576;-86
2024/02/05 13:27:03;;;;;;;0.88;0.20;;;19.00;53.90;;;;;;6106239;23;20243;-87
2024/02/05 13:29:29;;;;;;;0.70;0.30;;;19.20;53.90;;;;;;6148021;23;20232;-86
2024/02/05 13:31:56;;;;;;;1.33;0.22;;;19.20;53.90;;;;;;6148614;23;20196;-84
2024/02/05 13:34:26;;;;;;;1.15;0.38;;;19.20;54.20;;;;;;6127725;23;20200;-84
2024/02/05 13:36:53;;;;;;;1.27;0.20;;;19.10;54.50;;;;;;6192744;23;20138;-85
2024/02/05 13:39:22;;;;;;;0.95;0.30;;;19.20;53.70;;;;;;6192136;23;20139;-86
2024/02/05 13:41:52;;;;;;;1.35;0.30;;;19.20;53.80;;;;;;6213346;22;20275;-85
2024/02/05 13:44:20;;;;;;;1.52;0.32;;;19.20;53.50;;;;;;6249615;22;20159;-86
2024/02/05 13:47:00;;;;;;;1.77;0.20;;;19.10;53.90;;;;;;6257753;22;20602;-84
2024/02/05 13:49:26;;;;;;;0.40;0.28;;;19.10;54.20;;;;;;6281819;22;20155;-85
2024/02/05 13:51:55;;;;;;;0.47;0.32;;;19.10;54.20;;;;;;6277283;22;20255;-84
2024/02/05 13:54:21;;;;;;;2.85;0.40;;;19.20;53.90;;;;;;6254461;22;20145;-85
2024/02/05 13:56:49;;;;;;;0.93;0.20;;;19.30;52.50;;;;;;6253369;22;20238;-84
2024/02/05 13:59:16;;;;;;;1.08;0.20;;;19.30;52.80;;;;;;6280281;22;20140;-84
2024/02/05 14:01:42;;;;;;;2.47;0.30;;;19.30;53.20;;;;;;6254810;22;20152;-84
2024/02/05 14:04:09;;;;;;;4.63;0.52;;;19.30;53.40;;;;;;6224288;23;20213;-85
2024/02/05 14:06:35;;;;;;;1.35;0.40;;;19.30;53.10;;;;;;6156100;23;20673;-84
2024/02/05 14:09:03;;;;;;;1.45;0.30;;;19.30;53.30;;;;;;6083500;23;20155;-89
2024/02/05 14:11:29;;;;;;;2.03;0.50;;;19.30;53.10;;;;;;6112036;23;20182;-84
2024/02/05 14:13:55;;;;;;;3.55;0.57;;;19.30;52.50;;;;;;6113630;23;20603;-85
2024/02/05 14:16:22;;;;;;;2.90;0.47;;;19.30;53.00;;;;;;6091021;23;20234;-84
2024/02/05 14:18:48;;;;;;;3.28;0.30;;;19.30;52.80;;;;;;6095839;23;20159;-85
2024/02/05 14:21:21;;;;;;;1.83;0.40;;;19.30;52.50;;;;;;6119022;23;20155;-82
2024/02/05 14:23:50;;;;;;;4.70;0.30;;;19.30;52.70;;;;;;6149597;23;20158;-82
2024/02/05 14:26:24;;;;;;;4.78;0.82;;;19.30;53.60;;;;;;6070029;23;20652;-82
2024/02/05 14:28:52;;;;;;;4.30;0.55;;;19.30;53.60;;;;;;6066209;23;20181;-84
2024/02/05 14:31:18;;;;;;;4.03;0.77;;;19.30;53.30;;;;;;6090154;23;20222;-83
2024/02/05 14:33:45;;;;;;;4.97;0.43;;;19.20;52.80;;;;;;6116870;23;20544;-84
2024/02/05 14:36:10;;;;;;;7.50;0.80;;;19.20;52.20;;;;;;6143471;23;20186;-83
2024/02/05 14:38:36;;;;;;;7.18;0.57;;;19.30;53.00;;;;;;6140232;23;20495;-83
2024/02/05 14:41:04;;;;;;;9.77;0.70;;;19.20;53.10;;;;;;6137847;23;20136;-83
2024/02/05 14:43:30;;;;;;;3.38;0.68;;;19.20;53.10;;;;;;6110711;23;20543;-82
2024/02/05 14:45:59;;;;;;;2.17;0.22;;;19.20;52.70;;;;;;6134532;23;20140;-82
2024/02/05 14:48:30;;;;;;;4.95;0.47;;;19.20;52.80;;;;;;6109342;23;20296;-81
2024/02/05 14:50:58;;;;;;;3.40;0.50;;;19.20;53.40;;;;;;6124865;23;20244;-85
2024/02/05 14:53:24;;;;;;;1.92;0.30;;;19.20;53.10;;;;;;6168044;23;20150;-84
2024/02/05 14:55:50;;;;;;;1.80;0.32;;;19.10;53.00;;;;;;6224562;22;20502;-83
2024/02/05 14:58:17;;;;;;;1.58;0.30;;;19.20;53.10;;;;;;6258400;22;20148;-83
2024/02/05 15:00:43;;;;;;;6.68;0.70;;;19.10;53.20;;;;;;6277816;22;20128;-83
2024/02/05 15:03:09;;;;;;;4.57;0.40;;;19.10;53.20;;;;;;6253219;22;20180;-85
2024/02/05 15:05:35;;;;;;;2.88;0.60;;;19.20;52.80;;;;;;6279473;22;20253;-81
2024/02/05 15:08:03;;;;;;;8.88;0.55;;;19.20;52.30;;;;;;6279705;22;20159;-83
2024/02/05 15:10:33;;;;;;;1.80;0.40;;;19.20;52.60;;;;;;6280055;22;20141;-84
2024/02/05 15:13:01;;;;;;;2.03;0.30;;;19.30;52.70;;;;;;6259449;22;20187;-88
2024/02/05 15:15:28;;;;;;;2.38;0.32;;;19.30;51.90;;;;;;6254564;22;20145;-86
2024/02/05 15:17:57;;;;;;;4.22;0.40;;;19.30;52.20;;;;;;6280813;22;20153;-85
2024/02/05 15:20:47;;;;;;;6.20;0.77;;;19.20;52.70;;;;;;6280506;22;20144;-85
2024/02/05 15:23:13;;;;;;;3.17;0.47;;;19.10;52.90;;;;;;6264479;22;20145;-83
2024/02/05 15:25:41;;;;;;;2.13;0.50;;;19.10;52.60;;;;;;6284839;22;20136;-85
2024/02/05 15:28:14;;;;;;;1.45;0.50;;;19.10;52.30;;;;;;6285718;22;20140;-85
2024/02/05 15:30:42;;;;;;;5.32;0.90;;;19.10;52.00;;;;;;6283278;22;20623;-84
2024/02/05 15:33:08;;;;;;;4.35;0.40;;;19.20;52.30;;;;;;6257810;22;20185;-87
2024/02/05 15:36:11;;;;;;;3.65;0.50;;;19.20;51.70;;;;;;6281906;22;20156;-86
2024/02/05 15:38:48;;;;;;;2.17;0.40;;;19.20;53.40;;;;;;6133183;23;20190;-85
2024/02/05 15:41:18;;;;;;;2.97;0.43;;;19.00;53.70;;;;;;6120222;23;20205;-84
2024/02/05 15:43:43;;;;;;;0.82;0.40;;;19.00;53.50;;;;;;6160627;23;20771;-84
2024/02/05 15:46:30;;;;;;;4.20;0.40;;;19.00;53.50;;;;;;6136938;23;20151;-82
2024/02/05 15:48:57;;;;;;;1.88;0.45;;;19.00;53.40;;;;;;6131848;23;20154;-85
2024/02/05 15:51:22;;;;;;;4.22;0.40;;;19.00;53.40;;;;;;6135980;23;20219;-84
2024/02/05 15:53:52;;;;;;;6.55;0.65;;;19.00;53.40;;;;;;6156664;23;20571;-86
2024/02/05 15:56:20;;;;;;;4.35;0.52;;;19.00;53.30;;;;;;6156359;23;20250;-83
2024/02/05 15:58:47;;;;;;;1.20;0.40;;;19.00;52.80;;;;;;6132015;23;20204;-86
2024/02/05 16:01:19;;;;;;;3.38;0.65;;;19.00;53.20;;;;;;6158910;23;20144;-84
2024/02/05 16:03:46;;;;;;;1.95;0.47;;;19.00;52.90;;;;;;6205755;23;20146;-86
2024/02/05 16:06:13;;;;;;;2.53;0.50;;;19.10;53.10;;;;;;6170629;23;20146;-83
2024/02/05 16:08:40;;;;;;;2.72;0.50;;;19.00;53.80;;;;;;6228305;22;20156;-84
2024/02/05 16:11:06;;;;;;;3.17;0.60;;;19.00;53.80;;;;;;6282520;22;20129;-85
2024/02/05 16:13:33;;;;;;;3.05;0.60;;;19.00;53.20;;;;;;6255938;22;20144;-83
2024/02/05 16:15:59;;;;;;;2.90;0.40;;;19.00;53.90;;;;;;6254350;22;20517;-84
2024/02/05 16:18:31;;;;;;;1.77;0.40;;;19.00;52.90;;;;;;6283799;22;20160;-83
2024/02/05 16:23:46;;;;;;;2.25;0.32;;;19.10;53.40;;;;;;6185988;23;20166;-86
2024/02/05 16:26:12;;;;;;;2.05;0.35;;;19.10;53.30;;;;;;6138010;23;20143;-87
2024/02/05 16:28:43;;;;;;;1.48;0.28;;;19.00;53.40;;;;;;6169009;23;20162;-85
2024/02/05 16:31:18;;;;;;;1.85;0.30;;;19.00;54.10;;;;;;6143732;23;20240;-86
2024/02/05 16:33:45;;;;;;;2.35;0.40;;;19.00;54.30;;;;;;6137839;23;20242;-84
2024/02/05 16:36:12;;;;;;;1.75;0.30;;;19.00;54.30;;;;;;6142426;23;20222;-84
2024/02/05 16:38:39;;;;;;;5.35;0.47;;;19.00;54.30;;;;;;6164157;23;20227;-82
2024/02/05 16:41:09;;;;;;;3.13;0.50;;;19.00;54.70;;;;;;6164939;23;20200;-83
2024/02/05 16:43:35;;;;;;;4.57;0.50;;;19.00;54.90;;;;;;6139293;23;20159;-84
2024/02/05 16:46:05;;;;;;;5.32;0.40;;;19.00;54.60;;;;;;6190899;23;20209;-85
2024/02/05 16:48:32;;;;;;;3.00;0.30;;;19.10;53.80;;;;;;6165618;23;20146;-86
2024/02/05 16:50:58;;;;;;;2.50;0.50;;;19.10;52.60;;;;;;6166362;23;20175;-84
2024/02/05 16:53:31;;;;;;;5.00;0.40;;;19.30;53.30;;;;;;6201590;22;20235;-84
2024/02/05 16:56:09;;;;;;;2.20;0.63;;;19.20;53.70;;;;;;6285709;22;20183;-84
2024/02/05 16:58:40;;;;;;;5.53;0.57;;;19.30;53.50;;;;;;6284935;22;20551;-85
2024/02/05 17:01:11;;;;;;;4.43;0.50;;;19.20;52.90;;;;;;6286199;22;20203;-86
2024/02/05 17:03:42;;;;;;;8.40;0.93;;;19.20;53.80;;;;;;6202181;23;20241;-82
2024/02/05 17:06:10;;;;;;;1.48;0.70;;;19.30;53.90;;;;;;6169126;23;20233;-85
2024/02/05 17:25:40;;;;;;;8.00;0.60;;;19.50;53.80;;;;;;6186910;22;20214;-83
2024/02/05 17:28:10;;;;;;;5.18;0.70;;;19.50;54.20;;;;;;6260204;22;20146;-85
2024/02/05 17:31:11;;;;;;;2.22;0.70;;;19.50;53.90;;;;;;6255179;22;20504;-84
2024/02/05 17:43:54;;;;;;;3.53;0.60;;;19.40;54.80;;;;;;6283131;22;20511;-85
2024/02/05 17:46:21;;;;;;;2.17;0.70;;;19.40;55.20;;;;;;6258585;22;20152;-88
2024/02/05 17:48:58;;;;;;;2.92;0.80;;;19.40;54.60;;;;;;6283415;22;20147;-86
2024/02/05 17:51:56;;;;;;;5.03;0.60;;;19.40;54.10;;;;;;6208035;22;20191;-88
2024/02/05 17:54:24;;;;;;;11.80;0.90;;;19.50;54.40;;;;;;6114935;23;20226;-85
2024/02/05 17:56:53;;;;;;;1.90;0.60;;;19.40;54.90;;;;;;6140225;23;20573;-88
2024/02/05 17:59:26;;;;;;;3.40;0.50;;;19.50;54.90;;;;;;6140231;23;20216;-86
2024/02/05 18:01:58;;;;;;;5.20;0.70;;;19.40;54.90;;;;;;6142891;23;20210;-86